Time;durP1;ratioP1;P1;durP2;ratioP2;P2;SDS_P1;SDS_P2;PMS_P1;PMS_P2;Temp;Humidity;BMP_temperature;BMP_pressure;BME280_temperature;BME280_humidity;BME280_pressure;Samples;Min_cycle;Max_cycle;Signal;HPM_P1;HPM_P2
2022/01/25 00:09:04;;;;;;;53.17;28.00;;;4.20;99.90;;;;;;2105402;68;20178;-78
2022/01/25 00:27:25;;;;;;;48.47;28.45;;;4.20;99.90;;;;;;2125267;67;20268;-79
2022/01/25 00:30:26;;;;;;;52.03;28.85;;;4.20;99.90;;;;;;2111193;67;20822;-79
2022/01/25 00:33:13;;;;;;;51.08;27.42;;;4.20;99.90;;;;;;2108238;67;20173;-79
2022/01/25 00:35:59;;;;;;;47.47;26.73;;;4.10;99.90;;;;;;2118542;67;20372;-80
2022/01/25 00:38:42;;;;;;;48.35;27.98;;;4.20;99.90;;;;;;2133595;67;20336;-79
2022/01/25 00:41:26;;;;;;;;;;;4.20;99.90;;;;;;2140855;66;20297;-80
2022/01/25 00:44:11;;;;;;;46.13;25.92;;;4.30;99.90;;;;;;2140427;66;20119;-79
2022/01/25 00:46:54;;;;;;;46.38;27.55;;;4.20;99.90;;;;;;2125953;67;20770;-79
2022/01/25 00:49:39;;;;;;;50.55;27.58;;;4.20;99.90;;;;;;2125135;67;20259;-79
2022/01/25 00:55:07;;;;;;;45.70;25.50;;;4.20;99.90;;;;;;2134812;67;20387;-79
2022/01/25 00:57:50;;;;;;;46.67;27.20;;;4.20;99.90;;;;;;2130229;67;20217;-79
2022/01/25 01:00:32;;;;;;;45.80;24.30;;;4.20;99.90;;;;;;2126309;67;20390;-79
2022/01/25 01:03:15;;;;;;;48.92;28.63;;;4.20;99.90;;;;;;2109604;67;20222;-79
2022/01/25 01:05:58;;;;;;;49.75;28.02;;;4.20;99.90;;;;;;2125609;67;20269;-79
2022/01/25 01:08:44;;;;;;;51.67;27.35;;;4.20;99.90;;;;;;2140751;66;20690;-78
2022/01/25 01:11:35;;;;;;;;;;;4.20;99.90;;;;;;2133891;66;20711;-78
2022/01/25 01:14:40;;;;;;;47.95;26.67;;;4.20;99.90;;;;;;2126044;67;20132;-79
2022/01/25 01:28:53;;;;;;;46.40;27.30;;;4.10;99.90;;;;;;2139425;66;20267;-79
2022/01/25 01:29:53;;;;;;;50.67;27.85;;;4.20;99.90;;;;;;2126004;67;20952;-80
2022/01/25 01:44:11;;;;;;;47.70;27.05;;;4.20;99.90;;;;;;2125301;67;20705;-78
2022/01/25 01:47:12;;;;;;;52.72;27.10;;;4.20;99.90;;;;;;2122621;67;20262;-77
2022/01/25 01:49:56;;;;;;;45.63;25.52;;;4.20;99.90;;;;;;2138938;67;20472;-79
2022/01/25 01:52:44;;;;;;;49.72;27.70;;;4.60;99.90;;;;;;2118495;67;20329;-78
2022/01/25 01:55:28;;;;;;;54.78;29.50;;;4.20;99.90;;;;;;2117501;67;20322;-78
2022/01/25 01:58:10;;;;;;;46.45;26.60;;;4.20;99.90;;;;;;2117283;67;20368;-79
2022/01/25 02:00:52;;;;;;;54.25;28.33;;;4.30;99.90;;;;;;2117132;67;20260;-79
2022/01/25 02:03:36;;;;;;;44.47;26.42;;;4.20;99.90;;;;;;2112682;67;20959;-79
2022/01/25 02:06:20;;;;;;;44.33;25.65;;;4.20;99.90;;;;;;2119819;67;20172;-79
2022/01/25 02:09:04;;;;;;;48.20;27.38;;;4.20;99.90;;;;;;2130448;67;20367;-78
2022/01/25 02:11:49;;;;;;;47.53;27.00;;;4.20;99.90;;;;;;2140897;66;20194;-79
2022/01/25 02:14:35;;;;;;;42.15;24.60;;;4.20;99.90;;;;;;2152336;66;20201;-78
2022/01/25 02:23:24;;;;;;;48.95;27.35;;;4.20;99.90;;;;;;2153407;66;20810;-78
2022/01/25 02:26:07;;;;;;;51.67;29.38;;;4.20;99.90;;;;;;2154256;66;20219;-78
2022/01/25 02:28:49;;;;;;;47.15;25.13;;;4.10;99.90;;;;;;2153103;66;20413;-79
2022/01/25 02:31:32;;;;;;;47.38;26.27;;;4.20;99.90;;;;;;2148266;66;20205;-78
2022/01/25 02:34:14;;;;;;;48.88;28.05;;;4.20;99.90;;;;;;2144181;66;20754;-78
2022/01/25 02:37:09;;;;;;;49.42;27.20;;;4.20;99.90;;;;;;2133065;67;20188;-79
2022/01/25 02:39:55;;;;;;;51.10;28.92;;;4.10;99.90;;;;;;2128760;67;20338;-78
2022/01/25 02:42:39;;;;;;;45.03;26.85;;;4.10;99.90;;;;;;2131953;67;20309;-79
2022/01/25 02:45:22;;;;;;;49.45;26.85;;;4.10;99.90;;;;;;2129212;67;20205;-78
2022/01/25 02:51:05;;;;;;;48.53;27.30;;;4.10;99.90;;;;;;2125204;67;20327;-79
2022/01/25 02:53:49;;;;;;;;;;;4.10;99.90;;;;;;2113961;67;20181;-79
2022/01/25 02:56:31;;;;;;;50.80;27.98;;;4.60;99.90;;;;;;2126102;67;20071;-79
2022/01/25 02:59:14;;;;;;;52.15;28.38;;;4.20;99.90;;;;;;2133946;67;20197;-76
2022/01/25 03:01:56;;;;;;;51.42;28.33;;;4.20;99.90;;;;;;2138095;67;20814;-79
2022/01/25 03:04:40;;;;;;;53.65;28.73;;;4.20;99.90;;;;;;2130262;67;20232;-79
2022/01/25 03:07:25;;;;;;;;;;;4.20;99.90;;;;;;2127620;67;20775;-78
2022/01/25 03:10:10;;;;;;;53.85;27.98;;;4.20;99.90;;;;;;2132443;67;20051;-79
2022/01/25 03:12:55;;;;;;;50.78;27.25;;;4.20;99.90;;;;;;2118960;67;20249;-79
2022/01/25 03:21:35;;;;;;;47.63;27.67;;;4.20;99.90;;;;;;2111186;67;20682;-78
2022/01/25 03:24:17;;;;;;;49.92;29.13;;;4.20;99.90;;;;;;2114625;67;20678;-79
2022/01/25 03:26:59;;;;;;;45.78;26.92;;;4.20;99.90;;;;;;2125726;67;20263;-80
2022/01/25 03:29:40;;;;;;;51.20;28.50;;;4.20;99.90;;;;;;2127526;67;20204;-79
2022/01/25 03:32:23;;;;;;;50.67;29.20;;;4.20;99.90;;;;;;2126725;67;20756;-78
2022/01/25 03:35:08;;;;;;;;;;;4.20;99.90;;;;;;2136825;66;20791;-78
2022/01/25 03:37:52;;;;;;;48.60;27.35;;;4.20;99.90;;;;;;2148613;66;20121;-79
2022/01/25 03:40:41;;;;;;;51.50;29.45;;;4.20;99.90;;;;;;2139893;67;20760;-79
2022/01/25 03:43:25;;;;;;;52.30;27.58;;;4.20;99.90;;;;;;2150189;66;20267;-78
2022/01/25 03:52:34;;;;;;;51.20;28.40;;;4.20;99.90;;;;;;2121775;67;20319;-79
2022/01/25 03:55:16;;;;;;;52.65;29.17;;;4.20;99.90;;;;;;2111532;67;20601;-78
2022/01/25 03:57:58;;;;;;;53.00;28.90;;;4.20;99.90;;;;;;2106503;67;20245;-78
2022/01/25 04:00:41;;;;;;;53.97;30.05;;;4.20;99.90;;;;;;2117609;67;20329;-79
2022/01/25 04:03:35;;;;;;;53.40;28.48;;;4.20;99.90;;;;;;2126445;67;20235;-78
2022/01/25 04:06:31;;;;;;;58.35;31.50;;;4.20;99.90;;;;;;2126068;67;20499;-78
2022/01/25 04:09:13;;;;;;;54.20;30.92;;;4.10;99.90;;;;;;2117943;67;20795;-79
2022/01/25 04:11:55;;;;;;;51.80;29.45;;;4.20;99.90;;;;;;2111579;67;20334;-78
2022/01/25 04:14:36;;;;;;;55.13;31.05;;;4.20;99.90;;;;;;2104093;68;20337;-78
2022/01/25 04:17:21;;;;;;;58.63;30.85;;;4.20;99.90;;;;;;2102767;68;20374;-77
2022/01/25 04:25:51;;;;;;;50.05;28.92;;;4.30;99.90;;;;;;2114083;67;20210;-79
2022/01/25 04:28:33;;;;;;;58.10;30.58;;;4.10;99.90;;;;;;2099035;68;20257;-78
2022/01/25 04:31:19;;;;;;;54.28;30.38;;;4.20;99.90;;;;;;2104460;68;20249;-79
2022/01/25 04:48:47;;;;;;;55.15;30.52;;;4.10;99.90;;;;;;2101901;68;20170;-78
2022/01/25 04:48:58;;;;;;;48.67;28.23;;;4.20;99.90;;;;;;2092862;68;20707;-81
2022/01/25 04:57:48;;;;;;;49.75;28.83;;;4.20;99.90;;;;;;2128973;67;20350;-78
2022/01/25 05:00:31;;;;;;;53.90;29.40;;;4.10;99.90;;;;;;2120122;67;20237;-79
2022/01/25 05:03:23;;;;;;;53.53;28.30;;;4.20;99.90;;;;;;2132979;67;20386;-78
2022/01/25 05:06:11;;;;;;;57.58;29.92;;;4.10;99.90;;;;;;2132081;67;20251;-78
2022/01/25 05:09:04;;;;;;;50.65;26.95;;;4.40;99.90;;;;;;2146543;66;20204;-78
2022/01/25 05:11:50;;;;;;;50.42;28.05;;;4.50;99.90;;;;;;2130555;67;20242;-78
2022/01/25 05:14:45;;;;;;;48.20;28.05;;;4.10;99.90;;;;;;2134834;67;20207;-79
2022/01/25 05:17:38;;;;;;;49.85;29.33;;;4.10;99.90;;;;;;2125269;67;20255;-78
2022/01/25 05:23:28;;;;;;;52.35;29.83;;;4.10;99.90;;;;;;2120659;67;20734;-79
2022/01/25 05:26:18;;;;;;;49.47;28.92;;;4.10;99.90;;;;;;2135217;66;20186;-80
2022/01/25 05:29:05;;;;;;;50.15;27.80;;;4.10;99.90;;;;;;2143599;66;20187;-81
2022/01/25 05:31:50;;;;;;;52.25;29.95;;;4.10;99.90;;;;;;2127391;67;20250;-78
2022/01/25 05:34:33;;;;;;;59.30;29.83;;;4.10;99.90;;;;;;2127331;67;20254;-78
2022/01/25 05:37:18;;;;;;;54.05;28.98;;;4.10;99.90;;;;;;2134241;67;20321;-78
2022/01/25 05:40:01;;;;;;;54.55;30.20;;;4.10;99.90;;;;;;2127573;67;20198;-78
2022/01/25 05:43:50;;;;;;;55.33;30.50;;;4.10;99.90;;;;;;2125394;67;20975;-76
2022/01/25 05:48:47;;;;;;;49.83;27.20;;;4.10;99.90;;;;;;2110503;67;20341;-76
2022/01/25 05:51:29;;;;;;;50.47;29.42;;;4.10;99.90;;;;;;2114697;67;20606;-77
2022/01/25 05:54:12;;;;;;;58.70;29.73;;;4.10;99.90;;;;;;2118730;67;20323;-78
2022/01/25 05:56:54;;;;;;;56.38;30.33;;;4.10;99.90;;;;;;2122416;67;20314;-78
2022/01/25 05:59:37;;;;;;;52.88;29.77;;;4.10;99.90;;;;;;2127611;67;20729;-77
2022/01/25 06:02:24;;;;;;;;;;;4.50;99.90;;;;;;2137887;66;20280;-77
2022/01/25 06:05:06;;;;;;;50.05;26.27;;;4.30;99.90;;;;;;2141248;67;20064;-77
2022/01/25 06:07:48;;;;;;;50.42;28.52;;;4.10;99.90;;;;;;2147056;66;20190;-77
2022/01/25 06:10:33;;;;;;;51.30;28.95;;;4.20;99.90;;;;;;2136344;67;20178;-77
2022/01/25 06:13:18;;;;;;;53.00;29.10;;;4.10;99.90;;;;;;2120612;67;20188;-78
2022/01/25 06:16:02;;;;;;;54.08;29.13;;;4.20;99.90;;;;;;2137542;67;20356;-77
2022/01/25 06:18:48;;;;;;;50.17;27.55;;;4.10;99.90;;;;;;2116320;67;20173;-77
2022/01/25 06:21:29;;;;;;;51.67;28.55;;;4.20;99.90;;;;;;2120201;67;20205;-77
2022/01/25 06:24:11;;;;;;;53.65;27.50;;;4.20;99.90;;;;;;2127251;67;20260;-76
2022/01/25 06:26:53;;;;;;;53.33;28.58;;;4.20;99.90;;;;;;2134630;67;20256;-76
2022/01/25 06:29:40;;;;;;;53.75;28.55;;;4.20;99.90;;;;;;2121101;67;20493;-75
2022/01/25 06:32:26;;;;;;;60.15;29.98;;;4.20;99.90;;;;;;2134328;67;20193;-76
2022/01/25 06:35:09;;;;;;;53.05;27.90;;;4.20;99.90;;;;;;2118880;67;20296;-77
2022/01/25 06:37:53;;;;;;;52.42;30.40;;;4.20;99.90;;;;;;2112049;67;20399;-78
2022/01/25 06:40:40;;;;;;;53.17;29.42;;;4.20;99.90;;;;;;2127481;67;20227;-75
2022/01/25 06:43:23;;;;;;;60.97;31.17;;;4.10;99.90;;;;;;2122121;67;20761;-78
2022/01/25 06:46:08;;;;;;;51.70;28.35;;;4.20;99.90;;;;;;2121018;67;20876;-77
2022/01/25 06:48:50;;;;;;;53.22;29.20;;;4.20;99.90;;;;;;2106149;68;20335;-77
2022/01/25 06:51:32;;;;;;;56.03;29.98;;;4.20;99.90;;;;;;2101620;67;20289;-78
2022/01/25 06:54:15;;;;;;;55.60;29.92;;;4.30;99.90;;;;;;2128690;67;20297;-77
2022/01/25 06:56:59;;;;;;;53.58;28.80;;;4.30;99.90;;;;;;2120999;67;20370;-77
2022/01/25 06:59:41;;;;;;;54.25;29.20;;;4.20;99.90;;;;;;2119986;67;20350;-77
2022/01/25 07:02:23;;;;;;;58.60;29.65;;;4.30;99.90;;;;;;2121419;67;20256;-79
2022/01/25 07:05:17;;;;;;;53.13;29.02;;;4.20;99.90;;;;;;2122317;67;20168;-79
2022/01/25 07:08:02;;;;;;;53.30;28.88;;;4.40;99.90;;;;;;2126272;67;20211;-79
2022/01/25 07:10:44;;;;;;;56.38;28.42;;;4.30;99.90;;;;;;2126880;67;20272;-80
2022/01/25 07:13:26;;;;;;;57.85;29.00;;;4.30;99.90;;;;;;2132719;67;20241;-81
2022/01/25 07:16:08;;;;;;;60.85;33.58;;;4.30;99.90;;;;;;2133338;66;20329;-79
2022/01/25 07:18:50;;;;;;;56.53;30.83;;;4.20;99.90;;;;;;2140474;67;20301;-79
2022/01/25 07:21:32;;;;;;;51.38;28.45;;;4.20;99.90;;;;;;2135485;67;20209;-79
2022/01/25 07:24:17;;;;;;;58.15;31.33;;;4.30;99.90;;;;;;2134313;67;20188;-78
2022/01/25 07:27:01;;;;;;;52.67;28.55;;;4.30;99.90;;;;;;2128255;67;20301;-79
2022/01/25 07:29:42;;;;;;;56.72;31.38;;;4.30;99.90;;;;;;2121710;67;20188;-79
2022/01/25 07:32:25;;;;;;;53.35;28.90;;;4.30;99.90;;;;;;2119790;67;20334;-78
2022/01/25 07:35:07;;;;;;;55.05;30.55;;;4.30;99.90;;;;;;2133958;67;20268;-79
2022/01/25 07:37:50;;;;;;;60.40;29.08;;;4.30;99.90;;;;;;2107389;67;20832;-79
2022/01/25 07:40:34;;;;;;;54.83;29.20;;;4.30;99.90;;;;;;2111764;67;20195;-79
2022/01/25 07:43:17;;;;;;;56.80;29.08;;;4.30;99.90;;;;;;2111209;67;20193;-78
2022/01/25 07:46:04;;;;;;;59.90;32.53;;;4.30;99.90;;;;;;2135470;67;20261;-79
2022/01/25 07:48:46;;;;;;;60.53;31.75;;;4.50;99.90;;;;;;2139061;66;20230;-79
2022/01/25 07:51:29;;;;;;;52.63;28.80;;;4.30;99.90;;;;;;2124558;67;20432;-78
2022/01/25 07:54:12;;;;;;;62.65;29.48;;;4.30;99.90;;;;;;2130643;67;20196;-80
2022/01/25 07:56:53;;;;;;;58.10;31.60;;;4.30;99.90;;;;;;2124509;67;20261;-78
2022/01/25 07:59:35;;;;;;;57.80;31.45;;;4.30;99.90;;;;;;2126580;67;20578;-78
2022/01/25 08:02:20;;;;;;;58.97;31.30;;;4.30;99.90;;;;;;2127411;67;20239;-75
2022/01/25 08:05:06;;;;;;;60.80;31.48;;;4.30;99.90;;;;;;2124085;67;20343;-77
2022/01/25 08:07:51;;;;;;;56.38;30.27;;;4.30;99.90;;;;;;2117476;67;20405;-76
2022/01/25 08:10:34;;;;;;;57.25;29.75;;;4.30;99.90;;;;;;2118939;67;20504;-77
2022/01/25 08:13:19;;;;;;;61.20;30.00;;;4.30;99.90;;;;;;2127065;67;20199;-76
2022/01/25 08:16:02;;;;;;;55.85;29.10;;;4.20;99.90;;;;;;2116964;67;20185;-78
2022/01/25 08:18:46;;;;;;;;;;;4.30;99.90;;;;;;2119726;67;20400;-78
2022/01/25 08:21:29;;;;;;;58.65;32.30;;;4.30;99.90;;;;;;2135464;67;20117;-78
2022/01/25 08:24:13;;;;;;;58.55;29.42;;;4.70;99.90;;;;;;2124905;67;20316;-79
2022/01/25 08:26:55;;;;;;;55.05;29.67;;;4.30;99.90;;;;;;2128070;67;20779;-76
2022/01/25 08:29:40;;;;;;;56.67;30.65;;;4.30;99.90;;;;;;2125609;67;20309;-78
2022/01/25 08:32:21;;;;;;;56.95;31.25;;;4.30;99.90;;;;;;2122442;67;20363;-75
2022/01/25 08:35:04;;;;;;;59.63;31.70;;;4.30;99.90;;;;;;2144403;66;20215;-76
2022/01/25 08:37:48;;;;;;;62.83;33.72;;;4.30;99.90;;;;;;2131827;67;20246;-76
2022/01/25 08:40:33;;;;;;;56.40;30.40;;;4.30;99.90;;;;;;2126208;66;20416;-76
2022/01/25 08:43:15;;;;;;;56.03;30.85;;;4.30;99.90;;;;;;2122919;67;20346;-77
2022/01/25 08:46:02;;;;;;;60.60;32.55;;;4.30;99.90;;;;;;2109949;67;20463;-76
2022/01/25 08:48:46;;;;;;;56.70;29.92;;;4.30;99.90;;;;;;2122723;67;20669;-76
2022/01/25 08:51:28;;;;;;;58.13;33.45;;;4.30;99.90;;;;;;2090424;68;20204;-76
2022/01/25 08:54:13;;;;;;;60.45;32.42;;;4.30;99.90;;;;;;2109454;67;20709;-77
2022/01/25 08:56:57;;;;;;;55.83;31.42;;;4.30;99.90;;;;;;2116058;67;20342;-77
2022/01/25 08:59:45;;;;;;;59.10;31.35;;;4.20;99.90;;;;;;2111640;67;20262;-80
2022/01/25 09:02:34;;;;;;;60.70;32.30;;;4.20;99.90;;;;;;2128038;67;20199;-80
2022/01/25 09:05:17;;;;;;;;;;;4.30;99.90;;;;;;2127276;67;20323;-77
2022/01/25 09:08:01;;;;;;;55.53;31.25;;;4.30;99.90;;;;;;2126356;67;20139;-78
2022/01/25 09:10:43;;;;;;;63.08;32.30;;;4.20;99.90;;;;;;2124800;67;20243;-80
2022/01/25 09:13:29;;;;;;;62.88;33.30;;;4.30;99.90;;;;;;2119636;67;20177;-80
2022/01/25 09:16:13;;;;;;;;;;;4.30;99.90;;;;;;2132647;67;20344;-77
2022/01/25 09:18:56;;;;;;;61.72;32.35;;;4.30;99.90;;;;;;2132733;67;20135;-78
2022/01/25 09:21:41;;;;;;;69.82;33.30;;;4.30;99.90;;;;;;2146864;66;20304;-77
2022/01/25 09:24:24;;;;;;;58.70;29.95;;;4.30;99.90;;;;;;2160664;66;20236;-78
2022/01/25 09:27:09;;;;;;;;;;;4.30;99.90;;;;;;2150397;66;20265;-78
2022/01/25 09:29:54;;;;;;;61.65;31.85;;;4.30;99.90;;;;;;2162195;66;20175;-77
2022/01/25 09:32:37;;;;;;;61.15;32.63;;;4.30;99.90;;;;;;2159084;66;20792;-77
2022/01/25 09:35:21;;;;;;;;;;;4.30;99.90;;;;;;2135918;66;20453;-77
2022/01/25 09:38:03;;;;;;;57.60;29.80;;;4.30;99.90;;;;;;2124501;67;20187;-76
2022/01/25 09:40:45;;;;;;;58.75;31.10;;;4.70;99.90;;;;;;2125393;67;20361;-77
2022/01/25 09:43:28;;;;;;;60.15;32.25;;;4.40;99.90;;;;;;2124858;67;20337;-78
2022/01/25 09:46:10;;;;;;;61.40;31.15;;;4.30;99.90;;;;;;2116091;67;20296;-77
2022/01/25 09:48:53;;;;;;;62.28;32.42;;;4.40;99.90;;;;;;2123705;67;20207;-77
2022/01/25 09:51:41;;;;;;;63.65;32.05;;;4.00;99.90;;;;;;2112174;67;20783;-77
2022/01/25 09:54:24;;;;;;;59.15;31.15;;;4.40;99.90;;;;;;2110428;67;20210;-79
2022/01/25 09:57:07;;;;;;;59.58;30.88;;;4.40;99.90;;;;;;2094240;68;20267;-80
2022/01/25 09:59:49;;;;;;;63.30;32.08;;;4.70;99.90;;;;;;2113483;67;20312;-79
2022/01/25 10:03:21;;;;;;;66.65;31.42;;;4.50;99.90;;;;;;2127063;67;20672;-76
2022/01/25 10:06:04;;;;;;;56.55;30.23;;;4.60;99.90;;;;;;2117576;67;20277;-75
2022/01/25 10:08:49;;;;;;;61.30;31.67;;;4.40;99.90;;;;;;2111357;67;20224;-75
2022/01/25 10:11:31;;;;;;;62.78;32.15;;;4.50;99.90;;;;;;2114817;67;20180;-77
2022/01/25 10:14:13;;;;;;;56.70;29.33;;;4.50;99.90;;;;;;2133243;67;20195;-75
2022/01/25 10:16:56;;;;;;;66.97;32.78;;;4.50;99.90;;;;;;2122063;67;20306;-76
2022/01/25 10:19:42;;;;;;;58.65;31.90;;;4.50;99.90;;;;;;2113147;67;20828;-78
2022/01/25 10:22:24;;;;;;;;;;;4.40;99.90;;;;;;2111867;67;20647;-78
2022/01/25 10:25:07;;;;;;;58.88;30.38;;;4.50;99.90;;;;;;2118508;67;20102;-77
2022/01/25 10:28:04;;;;;;;63.10;31.42;;;4.40;99.90;;;;;;2115842;67;20315;-78
2022/01/25 10:31:08;;;;;;;66.28;32.22;;;4.40;99.90;;;;;;2106295;67;20684;-78
2022/01/25 10:33:53;;;;;;;65.65;32.05;;;4.50;99.90;;;;;;2118229;67;20239;-77
2022/01/25 10:36:45;;;;;;;62.40;30.92;;;4.50;99.90;;;;;;2120670;67;20190;-78
2022/01/25 10:39:32;;;;;;;57.25;31.15;;;4.50;99.90;;;;;;2108868;67;20343;-78
2022/01/25 10:42:27;;;;;;;60.10;31.30;;;4.50;99.90;;;;;;2117994;67;20794;-77
2022/01/25 10:45:13;;;;;;;57.67;31.48;;;4.50;99.90;;;;;;2133712;67;20292;-77
2022/01/25 10:48:02;;;;;;;58.00;31.92;;;4.60;99.90;;;;;;2129939;67;20183;-76
2022/01/25 10:50:46;;;;;;;57.25;29.45;;;4.60;99.90;;;;;;2124229;67;20200;-76
2022/01/25 10:53:28;;;;;;;63.63;32.17;;;4.60;99.90;;;;;;2124456;67;20244;-76
2022/01/25 10:56:11;;;;;;;61.72;33.15;;;4.60;99.90;;;;;;2119319;67;20612;-77
2022/01/25 10:59:02;;;;;;;63.67;32.65;;;4.60;99.90;;;;;;2130453;66;20491;-76
2022/01/25 11:02:08;;;;;;;63.97;33.35;;;4.60;99.90;;;;;;2152972;66;20329;-77
2022/01/25 11:04:51;;;;;;;61.60;32.00;;;4.70;99.90;;;;;;2146110;66;20202;-78
2022/01/25 11:07:38;;;;;;;67.05;33.83;;;4.70;99.90;;;;;;2125243;67;20181;-75
2022/01/25 11:10:21;;;;;;;63.65;33.55;;;4.70;99.90;;;;;;2123167;67;20203;-76
2022/01/25 11:13:10;;;;;;;61.40;32.60;;;4.70;99.90;;;;;;2115194;67;20223;-76
2022/01/25 11:15:52;;;;;;;57.83;32.33;;;4.60;99.90;;;;;;2118222;67;20303;-76
2022/01/25 11:18:36;;;;;;;59.50;32.50;;;4.70;99.90;;;;;;2122098;67;20226;-74
2022/01/25 11:21:21;;;;;;;60.85;31.90;;;4.70;99.90;;;;;;2122949;67;20301;-76
2022/01/25 11:24:04;;;;;;;62.28;33.63;;;4.70;99.90;;;;;;2106733;67;20253;-75
2022/01/25 11:26:48;;;;;;;63.15;33.05;;;4.70;99.90;;;;;;2121826;67;20831;-74
2022/01/25 11:29:30;;;;;;;58.65;33.22;;;4.70;99.90;;;;;;2130765;67;20433;-76
2022/01/25 11:32:19;;;;;;;67.47;31.77;;;4.70;99.90;;;;;;2131804;67;20263;-77
2022/01/25 11:35:10;;;;;;;65.32;33.28;;;4.70;99.90;;;;;;2125955;67;20212;-76
2022/01/25 11:37:52;;;;;;;65.97;33.55;;;4.70;99.90;;;;;;2134520;67;20201;-77
2022/01/25 11:40:46;;;;;;;64.13;34.20;;;4.70;99.90;;;;;;2134705;67;20195;-78
2022/01/25 11:43:33;;;;;;;64.55;32.28;;;4.70;99.90;;;;;;2127170;67;20420;-77
2022/01/25 11:46:21;;;;;;;66.43;34.63;;;4.60;99.90;;;;;;2128027;67;20213;-75
2022/01/25 11:49:14;;;;;;;70.68;38.75;;;4.70;99.90;;;;;;2137834;67;20427;-77
2022/01/25 11:52:17;;;;;;;67.03;33.83;;;4.70;99.90;;;;;;2134527;67;20176;-78
2022/01/25 11:55:27;;;;;;;60.72;33.60;;;4.70;99.90;;;;;;2142428;66;20178;-77
2022/01/25 11:58:15;;;;;;;59.58;32.58;;;4.60;99.90;;;;;;2147448;66;20507;-76
2022/01/25 12:01:04;;;;;;;64.13;34.03;;;4.60;99.90;;;;;;2141641;66;20222;-77
2022/01/25 12:04:16;;;;;;;60.65;32.25;;;5.10;99.90;;;;;;2135948;67;20239;-77
2022/01/25 12:07:09;;;;;;;63.15;31.95;;;4.60;99.90;;;;;;2133943;67;20183;-78
2022/01/25 12:10:03;;;;;;;67.97;33.33;;;4.60;99.90;;;;;;2136676;66;20187;-77
2022/01/25 12:13:21;;;;;;;63.65;34.53;;;4.80;99.90;;;;;;2142246;66;20351;-76
2022/01/25 12:16:24;;;;;;;71.35;35.83;;;4.60;99.90;;;;;;2147061;66;20234;-76
2022/01/25 12:19:09;;;;;;;62.13;31.85;;;4.60;99.90;;;;;;2132991;67;20205;-80
2022/01/25 12:21:58;;;;;;;63.55;33.20;;;4.60;99.90;;;;;;2125832;67;20266;-80
2022/01/25 12:24:48;;;;;;;66.15;35.50;;;4.60;99.90;;;;;;2137749;66;20182;-80
2022/01/25 12:27:58;;;;;;;72.78;36.20;;;5.00;99.90;;;;;;2147699;66;20202;-80
2022/01/25 12:30:41;;;;;;;69.32;34.08;;;5.00;99.90;;;;;;2144889;66;20193;-78
2022/01/25 12:33:50;;;;;;;66.35;33.58;;;4.50;99.90;;;;;;2146247;66;20814;-79
2022/01/25 12:36:49;;;;;;;69.85;35.90;;;4.60;99.90;;;;;;2146055;66;20670;-79
2022/01/25 12:39:21;;;;;;;69.38;34.20;;;4.50;99.90;;;;;;2152018;66;21056;-78
2022/01/25 12:42:17;;;;;;;71.03;34.28;;;4.60;99.90;;;;;;2155298;66;20420;-77
2022/01/25 12:44:53;;;;;;;;;;;4.60;99.90;;;;;;2172967;65;20243;-78
2022/01/25 12:47:31;;;;;;;;;;;4.60;99.90;;;;;;2171158;65;20545;-79
2022/01/25 12:50:10;;;;;;;66.60;31.00;;;4.60;99.90;;;;;;2174677;65;20309;-78
2022/01/25 12:52:47;;;;;;;65.35;33.88;;;4.60;99.90;;;;;;2192184;64;21205;-77
2022/01/25 12:55:29;;;;;;;56.45;31.60;;;4.60;99.90;;;;;;2205065;64;20507;-77
2022/01/25 12:58:34;;;;;;;63.50;32.90;;;4.60;99.90;;;;;;2210275;64;20316;-77
2022/01/25 13:01:16;;;;;;;67.93;32.38;;;4.60;99.90;;;;;;2210921;64;20350;-78
2022/01/25 13:04:12;;;;;;;68.13;36.70;;;4.50;99.90;;;;;;2214172;64;20175;-77
2022/01/25 13:06:51;;;;;;;62.78;34.17;;;4.50;99.90;;;;;;2226732;64;20180;-77
2022/01/25 13:09:46;;;;;;;61.60;33.20;;;4.50;99.90;;;;;;2221546;64;20317;-76
2022/01/25 13:12:29;;;;;;;62.10;32.42;;;4.50;99.90;;;;;;2220528;64;20348;-77
2022/01/25 13:15:38;;;;;;;68.75;34.67;;;4.60;99.90;;;;;;2220156;64;20198;-78
2022/01/25 13:18:12;;;;;;;59.15;33.45;;;4.60;99.90;;;;;;2219929;64;20255;-77
2022/01/25 13:21:00;;;;;;;69.70;34.67;;;4.60;99.90;;;;;;2221024;64;20190;-80
2022/01/25 13:23:54;;;;;;;65.68;33.92;;;4.60;99.90;;;;;;2219778;64;20243;-77
2022/01/25 13:27:10;;;;;;;63.03;33.53;;;4.60;99.90;;;;;;2227042;64;20823;-77
2022/01/25 13:32:58;;;;;;;64.00;32.92;;;4.60;99.90;;;;;;2204818;64;20237;-78
2022/01/25 13:35:47;;;;;;;63.80;31.52;;;4.60;99.90;;;;;;2191116;65;20196;-80
2022/01/25 13:38:36;;;;;;;66.95;34.63;;;4.70;99.90;;;;;;2175786;65;20302;-79
2022/01/25 13:41:25;;;;;;;59.90;31.27;;;4.70;99.90;;;;;;2162942;66;20219;-78
2022/01/25 13:46:54;;;;;;;63.22;29.85;;;4.70;99.90;;;;;;2160066;66;20830;-78
2022/01/25 13:49:36;;;;;;;61.45;31.60;;;4.70;99.90;;;;;;2154681;66;20173;-77
2022/01/25 13:52:22;;;;;;;62.55;33.13;;;4.70;99.90;;;;;;2148489;66;20464;-77
2022/01/25 13:55:26;;;;;;;64.00;32.63;;;4.60;99.90;;;;;;2144965;66;20266;-80
2022/01/25 13:58:25;;;;;;;62.13;32.83;;;4.90;99.90;;;;;;2142538;66;20328;-78
2022/01/25 14:01:25;;;;;;;59.40;31.85;;;5.00;99.90;;;;;;2133252;67;20294;-78
2022/01/25 14:04:47;;;;;;;61.17;31.13;;;4.10;99.90;;;;;;2136151;66;20205;-78
2022/01/25 14:07:47;;;;;;;63.40;32.30;;;4.60;99.90;;;;;;2139472;66;20210;-79
2022/01/25 14:10:28;;;;;;;61.95;31.25;;;4.60;99.90;;;;;;2144758;66;20193;-78
2022/01/25 14:24:59;;;;;;;;;;;5.10;99.90;;;;;;2111800;67;20228;-76
2022/01/25 14:27:51;;;;;;;67.85;31.77;;;4.60;99.90;;;;;;2123564;67;20127;-79
2022/01/25 14:30:32;;;;;;;70.47;32.53;;;4.60;99.90;;;;;;2139230;66;20251;-80
2022/01/25 14:33:14;;;;;;;58.30;30.10;;;4.60;99.90;;;;;;2159502;66;20172;-80
2022/01/25 14:36:04;;;;;;;62.95;33.08;;;4.60;99.90;;;;;;2176055;65;20199;-80
2022/01/25 14:38:46;;;;;;;61.22;31.52;;;4.30;99.90;;;;;;2175187;65;20222;-79
2022/01/25 14:41:27;;;;;;;70.50;34.25;;;4.50;99.90;;;;;;2199201;64;20168;-79
2022/01/25 14:44:25;;;;;;;69.10;33.20;;;4.50;99.90;;;;;;2233740;64;20255;-78
2022/01/25 14:47:11;;;;;;;67.38;34.83;;;4.50;99.90;;;;;;2235005;64;20208;-81
2022/01/25 14:49:48;;;;;;;61.70;32.63;;;4.50;99.90;;;;;;2237230;64;20303;-79
2022/01/25 14:52:24;;;;;;;67.00;33.08;;;5.00;99.90;;;;;;2232854;63;20323;-78
2022/01/25 14:55:02;;;;;;;75.18;33.10;;;4.50;99.90;;;;;;2238545;63;20318;-79
2022/01/25 14:58:02;;;;;;;70.10;35.28;;;4.40;99.90;;;;;;2243988;63;20604;-78
2022/01/25 15:00:54;;;;;;;68.43;33.25;;;4.40;99.90;;;;;;2245440;63;20185;-78
2022/01/25 15:03:34;;;;;;;66.70;34.22;;;4.40;99.90;;;;;;2243772;63;20240;-77
2022/01/25 15:06:17;;;;;;;69.75;33.67;;;4.40;99.90;;;;;;2220650;64;20298;-76
2022/01/25 15:08:59;;;;;;;66.25;35.03;;;4.40;99.90;;;;;;2214139;64;20341;-81
2022/01/25 15:11:41;;;;;;;76.43;39.22;;;4.40;99.90;;;;;;2197174;65;20196;-77
2022/01/25 15:14:34;;;;;;;68.35;34.33;;;4.30;99.90;;;;;;2190940;65;20684;-77
2022/01/25 15:17:19;;;;;;;74.05;33.67;;;4.30;99.90;;;;;;2176734;65;20175;-77
2022/01/25 15:20:01;;;;;;;67.55;34.75;;;4.30;99.90;;;;;;2182107;65;20752;-77
2022/01/25 15:22:45;;;;;;;71.53;33.22;;;4.30;99.90;;;;;;2174735;65;20199;-78
2022/01/25 15:25:27;;;;;;;69.28;35.70;;;4.30;99.90;;;;;;2175364;65;20552;-77
2022/01/25 15:28:12;;;;;;;69.72;34.70;;;4.30;99.90;;;;;;2168628;65;20261;-78
2022/01/25 15:30:59;;;;;;;73.25;36.45;;;4.30;99.90;;;;;;2154293;66;20215;-78
2022/01/25 15:33:44;;;;;;;66.53;34.42;;;4.30;99.90;;;;;;2133974;67;20265;-77
2022/01/25 15:36:27;;;;;;;66.88;33.60;;;4.30;99.90;;;;;;2134811;67;20493;-78
2022/01/25 15:39:10;;;;;;;73.05;36.13;;;4.30;99.90;;;;;;2135932;67;20597;-77
2022/01/25 15:41:56;;;;;;;70.28;36.35;;;4.20;99.90;;;;;;2145495;66;20196;-75
2022/01/25 15:44:46;;;;;;;68.43;36.10;;;4.20;99.90;;;;;;2147619;66;20337;-76
2022/01/25 15:47:35;;;;;;;75.75;37.05;;;4.30;99.90;;;;;;2147530;66;20196;-78
2022/01/25 15:50:16;;;;;;;74.72;36.50;;;4.30;99.90;;;;;;2136214;66;20263;-78
2022/01/25 15:52:59;;;;;;;63.67;34.90;;;4.20;99.90;;;;;;2140937;66;20734;-78
2022/01/25 15:55:41;;;;;;;67.60;33.22;;;5.10;99.90;;;;;;2147339;66;20248;-79
2022/01/25 15:58:18;;;;;;;64.35;34.20;;;4.20;99.90;;;;;;2144459;67;20347;-78
2022/01/25 16:00:58;;;;;;;66.72;33.67;;;4.50;99.90;;;;;;2144665;66;20269;-78
2022/01/25 16:03:49;;;;;;;69.88;35.60;;;4.20;99.90;;;;;;2167771;65;20312;-79
2022/01/25 16:06:40;;;;;;;74.65;37.88;;;4.20;99.90;;;;;;2173574;65;20703;-76
2022/01/25 16:09:18;;;;;;;74.50;34.03;;;3.80;99.90;;;;;;2175308;65;20691;-77
2022/01/25 16:12:13;;;;;;;75.25;36.55;;;4.10;99.90;;;;;;2168990;65;20441;-76
2022/01/25 16:14:50;;;;;;;76.50;35.97;;;4.20;99.90;;;;;;2177544;65;20310;-77